Time;durP1;ratioP1;P1;durP2;ratioP2;P2;SDS_P1;SDS_P2;PMS_P1;PMS_P2;Temp;Humidity;BMP_temperature;BMP_pressure;BME280_temperature;BME280_humidity;BME280_pressure;Samples;Min_cycle;Max_cycle;Signal;HPM_P1;HPM_P2
2022/12/03 00:00:57;;;;;;;33.30;12.77;;;;;;;7.75;100.00;102248.44;5076056;28;20041;-59
2022/12/03 00:03:23;;;;;;;33.80;13.07;;;;;;;7.85;100.00;102248.44;5082801;28;20039;-59
2022/12/03 00:05:49;;;;;;;29.57;12.53;;;;;;;7.94;100.00;102244.91;5078704;28;20052;-60
2022/12/03 00:08:14;;;;;;;31.53;13.03;;;;;;;7.59;100.00;102239.19;5079397;28;20052;-57
2022/12/03 00:10:40;;;;;;;38.47;13.20;;;;;;;7.91;100.00;102239.03;5075759;28;20297;-59
2022/12/03 00:13:05;;;;;;;29.43;11.33;;;;;;;7.96;100.00;102234.97;5078064;28;20025;-59
2022/12/03 00:15:30;;;;;;;32.87;13.73;;;;;;;7.73;100.00;102239.75;5078050;28;20039;-58
2022/12/03 00:17:56;;;;;;;37.97;13.37;;;;;;;7.98;100.00;102234.81;5074370;28;20033;-61
2022/12/03 00:20:25;;;;;;;37.38;13.50;;;;;;;7.86;100.00;102231.47;5079042;28;20029;-59
2022/12/03 00:22:50;;;;;;;31.10;11.95;;;;;;;7.88;100.00;102224.16;5079255;28;20064;-60
2022/12/03 00:25:16;;;;;;;30.10;13.93;;;;;;;7.89;100.00;102229.38;5074505;28;20673;-59
2022/12/03 00:27:42;;;;;;;33.43;12.83;;;;;;;8.21;100.00;102234.47;5076340;28;20041;-60
2022/12/03 00:30:09;;;;;;;29.77;11.48;;;;;;;8.33;100.00;102222.66;5077849;28;20265;-60
2022/12/03 00:32:35;;;;;;;31.23;13.05;;;;;;;8.33;100.00;102231.47;5078460;28;20096;-59
2022/12/03 00:35:01;;;;;;;33.57;13.67;;;;;;;7.92;100.00;102225.56;5080301;28;20086;-59
2022/12/03 00:37:27;;;;;;;32.22;13.00;;;;;;;7.98;100.00;102227.66;5078628;28;20028;-57
2022/12/03 00:39:53;;;;;;;33.60;13.33;;;;;;;7.90;100.00;102230.19;5076430;28;20036;-60
2022/12/03 00:42:20;;;;;;;27.45;11.13;;;;;;;8.10;100.00;102220.34;5078561;28;20075;-60
2022/12/03 00:44:45;;;;;;;27.40;11.88;;;;;;;8.48;100.00;102225.69;5079838;28;20040;-60
2022/12/03 00:47:11;;;;;;;29.83;12.45;;;;;;;8.20;100.00;102220.31;5080490;28;20031;-60
2022/12/03 00:49:37;;;;;;;37.28;14.88;;;;;;;8.07;100.00;102223.28;5077288;28;20044;-59
2022/12/03 00:52:03;;;;;;;31.37;12.60;;;;;;;8.32;100.00;102215.66;5078967;28;20049;-60
2022/12/03 00:54:28;;;;;;;36.30;13.23;;;;;;;8.65;100.00;102215.22;5078864;28;20060;-60
2022/12/03 00:56:55;;;;;;;30.17;12.73;;;;;;;8.36;100.00;102206.38;5078212;28;20052;-61
2022/12/03 00:59:21;;;;;;;33.65;13.38;;;;;;;8.28;100.00;102209.75;5076074;28;20084;-60
2022/12/03 01:01:46;;;;;;;35.17;13.90;;;;;;;8.39;100.00;102206.06;5078912;28;20111;-59
2022/12/03 01:04:12;;;;;;;37.00;15.47;;;;;;;8.16;100.00;102203.78;5080429;28;20028;-61
2022/12/03 01:06:37;;;;;;;36.90;14.90;;;;;;;8.27;100.00;102202.75;5083685;28;20344;-60
2022/12/03 01:09:03;;;;;;;39.37;15.40;;;;;;;7.93;100.00;102208.59;5083806;28;20289;-60
2022/12/03 01:11:37;;;;;;;41.23;16.27;;;;;;;7.97;100.00;102206.50;5083227;28;20036;-59
2022/12/03 01:14:04;;;;;;;34.42;14.50;;;;;;;7.64;100.00;102206.00;5081970;28;20286;-60
2022/12/03 01:16:29;;;;;;;37.00;14.80;;;;;;;7.30;100.00;102199.31;5080649;28;20506;-59
2022/12/03 01:18:55;;;;;;;36.67;15.57;;;;;;;7.64;100.00;102200.69;5081024;28;20049;-60
2022/12/03 01:21:20;;;;;;;39.70;14.77;;;;;;;7.68;100.00;102199.41;5078757;28;20040;-61
2022/12/03 01:23:46;;;;;;;35.10;13.37;;;;;;;7.72;100.00;102198.13;5080178;28;20021;-60
2022/12/03 01:26:11;;;;;;;44.93;16.63;;;;;;;7.71;100.00;102201.78;5081523;28;20298;-60
2022/12/03 01:28:37;;;;;;;37.30;16.07;;;;;;;7.74;100.00;102196.16;5078407;28;20033;-60
2022/12/03 01:33:46;;;;;;;34.38;13.23;;;;;;;8.08;100.00;102186.81;5082965;28;20052;-60
2022/12/03 01:36:12;;;;;;;30.53;14.40;;;;;;;7.70;100.00;102194.78;5079599;28;20100;-60
2022/12/03 01:38:38;;;;;;;35.75;16.23;;;;;;;7.79;100.00;102193.09;5079977;28;20040;-60
2022/12/03 01:41:03;;;;;;;42.67;18.73;;;;;;;7.91;100.00;102191.09;5081782;28;20052;-60
2022/12/03 01:43:30;;;;;;;35.78;14.18;;;;;;;7.93;100.00;102181.13;5081909;28;20033;-60
2022/12/03 01:45:55;;;;;;;39.97;17.90;;;;;;;7.83;100.00;102189.97;5080552;28;20070;-60
2022/12/03 01:48:21;;;;;;;39.45;16.52;;;;;;;7.82;100.00;102179.47;5080877;28;20036;-59
2022/12/03 01:50:47;;;;;;;43.17;15.77;;;;;;;7.68;100.00;102183.44;5079177;28;20048;-61
2022/12/03 01:53:14;;;;;;;42.93;16.77;;;;;;;7.76;100.00;102186.22;5082517;28;20341;-60
2022/12/03 01:55:42;;;;;;;38.80;16.38;;;;;;;7.78;100.00;102186.91;5077854;28;20127;-60
2022/12/03 01:58:11;;;;;;;38.05;13.95;;;;;;;7.91;100.00;102186.59;5079534;28;20037;-61
2022/12/03 02:00:37;;;;;;;41.83;15.05;;;;;;;7.67;100.00;102187.06;5078505;28;20036;-60
2022/12/03 02:03:10;;;;;;;45.57;16.70;;;;;;;7.43;100.00;102189.19;5079920;28;20060;-61
2022/12/03 02:05:37;;;;;;;35.95;14.85;;;;;;;7.57;100.00;102185.25;5077924;28;20028;-60
2022/12/03 02:08:35;;;;;;;44.13;16.88;;;;;;;7.60;100.00;102190.28;5081077;28;20033;-60
2022/12/03 02:11:03;;;;;;;;;;;;;;;7.63;100.00;102188.34;5079155;28;20056;-60
2022/12/03 02:13:29;;;;;;;40.75;15.77;;;;;;;7.72;100.00;102188.31;5079313;28;19939;-60
2022/12/03 02:15:55;;;;;;;46.37;17.77;;;;;;;7.82;100.00;102188.28;5077483;28;20032;-61
2022/12/03 02:18:21;;;;;;;43.42;17.15;;;;;;;7.51;100.00;102185.81;5079534;28;20040;-59
2022/12/03 02:21:01;;;;;;;42.28;16.35;;;;;;;7.64;100.00;102190.84;5079206;28;20043;-60
2022/12/03 02:24:07;;;;;;;40.60;15.57;;;;;;;7.58;100.00;102186.94;5076442;28;20036;-59
2022/12/03 02:26:34;;;;;;;44.60;16.02;;;;;;;7.42;100.00;102182.19;5080592;28;20100;-60
2022/12/03 02:29:01;;;;;;;41.97;17.20;;;;;;;7.31;100.00;102185.00;5078731;28;20041;-59
2022/12/03 02:31:27;;;;;;;41.22;16.05;;;;;;;7.49;100.00;102182.47;5086138;28;20053;-61
2022/12/03 02:33:53;;;;;;;43.67;18.02;;;;;;;7.53;100.00;102183.03;5082989;28;20028;-61
2022/12/03 02:36:20;;;;;;;40.15;17.42;;;;;;;7.56;100.00;102178.25;5084565;28;20037;-59
2022/12/03 02:38:48;;;;;;;49.42;17.60;;;;;;;7.49;100.00;102181.63;5081620;28;20029;-58
2022/12/03 02:44:05;;;;;;;42.85;16.90;;;;;;;7.60;100.00;102179.63;5086128;28;20139;-60
2022/12/03 02:46:32;;;;;;;43.97;18.02;;;;;;;7.59;100.00;102174.47;5083484;28;20040;-61
2022/12/03 02:48:58;;;;;;;40.25;16.05;;;;;;;7.64;100.00;102180.19;5085983;28;20044;-60
2022/12/03 02:51:24;;;;;;;42.80;16.08;;;;;;;7.50;100.00;102170.00;5085138;28;20047;-59
2022/12/03 02:53:53;;;;;;;42.17;16.98;;;;;;;7.41;100.00;102175.19;5087215;28;20052;-60
2022/12/03 02:56:24;;;;;;;40.17;16.13;;;;;;;7.59;100.00;102177.97;5083838;28;20028;-58
2022/12/03 02:58:54;;;;;;;41.72;16.83;;;;;;;7.63;100.00;102175.03;5084357;28;20036;-59
2022/12/03 03:01:20;;;;;;;45.22;17.60;;;;;;;7.57;100.00;102174.59;5084821;28;20028;-58
2022/12/03 03:03:47;;;;;;;;;;;;;;;7.41;100.00;102171.69;5080526;28;20066;-59
2022/12/03 03:06:14;;;;;;;42.58;15.82;;;;;;;7.62;100.00;102165.38;5081738;28;19947;-60
2022/12/03 03:08:41;;;;;;;47.28;17.30;;;;;;;7.64;100.00;102171.38;5083018;28;20046;-60
2022/12/03 03:11:07;;;;;;;38.17;14.98;;;;;;;7.65;100.00;102173.06;5083556;28;20029;-59
2022/12/03 03:13:36;;;;;;;41.70;16.60;;;;;;;7.55;100.00;102171.25;5081916;28;20040;-60
2022/12/03 03:16:06;;;;;;;41.40;17.65;;;;;;;7.52;100.00;102166.22;5086206;28;20052;-60
2022/12/03 03:18:33;;;;;;;41.67;16.27;;;;;;;7.56;100.00;102170.25;5078069;28;20040;-59
2022/12/03 03:20:59;;;;;;;40.30;15.25;;;;;;;7.69;100.00;102167.28;5083623;28;20045;-60
2022/12/03 03:23:25;;;;;;;38.33;17.13;;;;;;;7.65;100.00;102168.56;5083268;28;20037;-59
2022/12/03 03:26:03;;;;;;;43.50;18.03;;;;;;;7.77;100.00;102163.91;5085179;28;20064;-60
2022/12/03 03:28:30;;;;;;;43.85;17.40;;;;;;;7.66;100.00;102164.09;5084288;28;20033;-60
2022/12/03 03:30:57;;;;;;;41.63;17.73;;;;;;;7.67;100.00;102157.78;5083384;28;20032;-58
2022/12/03 03:33:23;;;;;;;39.67;15.23;;;;;;;7.67;100.00;102160.44;5084635;28;20035;-61
2022/12/03 03:35:49;;;;;;;42.70;17.00;;;;;;;7.70;100.00;102162.81;5083873;28;20028;-60
2022/12/03 03:38:18;;;;;;;49.20;16.85;;;;;;;7.57;100.00;102158.63;5084957;28;20039;-57
2022/12/03 03:40:44;;;;;;;39.05;16.85;;;;;;;7.61;100.00;102164.53;5083235;28;20024;-59
2022/12/03 03:43:11;;;;;;;39.30;15.95;;;;;;;7.37;100.00;102152.50;5082678;28;20044;-60
2022/12/03 03:45:37;;;;;;;42.30;16.42;;;;;;;7.46;100.00;102154.31;5082602;28;20088;-61
2022/12/03 03:48:02;;;;;;;39.40;17.00;;;;;;;7.63;100.00;102148.41;5081375;28;20032;-59
2022/12/03 03:50:30;;;;;;;39.35;15.50;;;;;;;7.66;100.00;102146.28;5082953;28;20124;-60
2022/12/03 03:52:57;;;;;;;42.80;17.58;;;;;;;7.71;100.00;102145.84;5077453;28;20048;-59
2022/12/03 03:55:24;;;;;;;46.20;18.17;;;;;;;7.48;100.00;102151.50;5079009;28;20033;-59
2022/12/03 03:57:50;;;;;;;46.85;17.13;;;;;;;7.62;100.00;102136.91;5078675;28;20029;-60
2022/12/03 04:00:15;;;;;;;38.67;15.90;;;;;;;7.57;100.00;102140.00;5081665;28;20104;-59
2022/12/03 04:02:41;;;;;;;45.33;17.80;;;;;;;7.54;100.00;102134.97;5082884;28;20047;-59
2022/12/03 04:05:14;;;;;;;38.67;16.23;;;;;;;7.50;100.00;102136.22;5083870;28;20028;-61
2022/12/03 04:07:39;;;;;;;43.40;18.33;;;;;;;7.39;100.00;102139.06;5081815;28;20036;-59
2022/12/03 04:12:54;;;;;;;37.60;16.30;;;;;;;7.39;100.00;102129.25;5077135;28;20039;-61
2022/12/03 04:12:56;;;;;;;39.38;16.40;;;;;;;7.19;100.00;102133.75;5081159;28;20025;-60
2022/12/03 04:15:22;;;;;;;39.08;15.52;;;;;;;7.22;100.00;102133.47;5077676;28;20033;-60
2022/12/03 04:18:41;;;;;;;36.45;14.73;;;;;;;7.30;100.00;102135.44;5077876;28;20025;-59
2022/12/03 04:20:35;;;;;;;40.38;15.70;;;;;;;7.45;100.00;102130.50;5077539;28;20047;-59
2022/12/03 04:23:03;;;;;;;39.00;17.10;;;;;;;7.63;100.00;102124.44;5082729;28;20028;-60
2022/12/03 04:35:41;;;;;;;37.35;14.55;;;;;;;7.60;100.00;102121.06;5083205;28;20052;-59
2022/12/03 04:36:30;;;;;;;36.20;15.35;;;;;;;7.20;100.00;102130.13;5080230;28;20033;-59
2022/12/03 04:38:56;;;;;;;37.13;15.10;;;;;;;7.24;100.00;102131.50;5076868;28;20064;-60
2022/12/03 04:41:21;;;;;;;38.40;15.60;;;;;;;7.44;100.00;102121.66;5077463;28;20033;-59
2022/12/03 04:46:31;;;;;;;36.10;14.85;;;;;;;7.32;100.00;102128.97;5075882;28;20037;-60
2022/12/03 04:48:56;;;;;;;36.97;14.37;;;;;;;7.37;100.00;102133.88;5079626;28;20107;-58
2022/12/03 04:51:22;;;;;;;36.30;14.30;;;;;;;7.44;100.00;102131.50;5077199;28;20033;-60
2022/12/03 04:53:47;;;;;;;31.50;14.07;;;;;;;7.26;100.00;102128.69;5077948;28;20060;-59
2022/12/03 04:56:13;;;;;;;31.30;14.20;;;;;;;7.25;100.00;102125.22;5077939;28;20044;-61
2022/12/03 04:58:39;;;;;;;27.17;12.37;;;;;;;7.19;100.00;102117.78;5080423;28;20300;-59
2022/12/03 05:01:05;;;;;;;30.90;13.25;;;;;;;7.20;100.00;102119.47;5080379;28;20040;-59
2022/12/03 05:03:31;;;;;;;30.92;12.82;;;;;;;7.23;100.00;102123.66;5077659;28;20033;-60
2022/12/03 05:05:58;;;;;;;33.53;13.85;;;;;;;7.07;100.00;102124.22;5080796;28;20059;-60
2022/12/03 05:08:24;;;;;;;27.92;13.10;;;;;;;7.14;100.00;102128.84;5079383;28;20048;-60
2022/12/03 05:10:50;;;;;;;36.60;13.75;;;;;;;6.95;100.00;102126.19;5081364;28;20040;-60
2022/12/03 05:13:16;;;;;;;36.80;14.95;;;;;;;7.15;100.00;102121.69;5080923;28;20035;-60
2022/12/03 05:15:41;;;;;;;29.33;13.07;;;;;;;7.31;100.00;102123.81;5081884;28;20037;-60
2022/12/03 05:18:06;;;;;;;31.03;11.90;;;;;;;7.35;100.00;102127.00;5080807;28;20029;-59
2022/12/03 05:20:41;;;;;;;32.70;14.77;;;;;;;7.16;100.00;102121.56;5078689;28;20043;-60
2022/12/03 05:23:12;;;;;;;30.70;12.65;;;;;;;7.32;100.00;102123.66;5078926;28;20029;-60
2022/12/03 05:25:39;;;;;;;33.80;14.35;;;;;;;7.36;100.00;102124.22;5079977;28;20092;-56
2022/12/03 05:28:06;;;;;;;34.65;13.90;;;;;;;7.27;100.00;102125.91;5081462;28;20075;-60
2022/12/03 05:30:32;;;;;;;32.42;13.18;;;;;;;7.35;100.00;102122.53;5081780;28;20040;-59
2022/12/03 05:32:58;;;;;;;38.53;13.80;;;;;;;7.19;100.00;102117.78;5080750;28;20039;-59
2022/12/03 05:35:24;;;;;;;30.15;13.07;;;;;;;7.20;100.00;102113.28;5082315;28;20032;-58
2022/12/03 05:37:50;;;;;;;32.40;14.00;;;;;;;7.10;100.00;102113.31;5079197;28;20041;-59
2022/12/03 05:40:16;;;;;;;39.00;13.73;;;;;;;7.22;100.00;102112.19;5077811;28;20029;-59
2022/12/03 05:42:52;;;;;;;37.03;14.73;;;;;;;7.17;100.00;102115.25;5080985;28;20036;-58
2022/12/03 05:45:24;;;;;;;38.45;15.38;;;;;;;7.14;100.00;102109.38;5079455;28;20036;-60
2022/12/03 05:47:52;;;;;;;34.83;14.20;;;;;;;7.09;100.00;102096.53;5079488;28;20021;-61
2022/12/03 05:50:20;;;;;;;32.85;13.68;;;;;;;6.76;100.00;102105.75;5078885;28;20032;-59
2022/12/03 05:52:46;;;;;;;37.63;14.68;;;;;;;7.27;100.00;102109.09;5080740;28;20041;-60
2022/12/03 05:55:11;;;;;;;42.27;15.57;;;;;;;7.13;100.00;102110.34;5082422;28;20049;-58
2022/12/03 05:57:37;;;;;;;38.60;16.55;;;;;;;7.15;100.00;102111.91;5077581;28;20289;-60
2022/12/03 06:00:11;;;;;;;35.60;14.30;;;;;;;7.20;100.00;102114.16;5082656;28;20052;-60
2022/12/03 06:02:41;;;;;;;35.38;15.25;;;;;;;7.12;100.00;102106.00;5082644;28;20032;-60
2022/12/03 06:05:08;;;;;;;36.58;15.55;;;;;;;7.20;100.00;102110.63;5079843;28;20060;-59
2022/12/03 06:07:34;;;;;;;38.25;15.70;;;;;;;7.08;100.00;102104.63;5078494;28;20472;-57
2022/12/03 06:10:00;;;;;;;42.03;17.30;;;;;;;7.22;100.00;102104.22;5083157;28;20035;-59
2022/12/03 06:12:25;;;;;;;36.30;15.43;;;;;;;7.20;100.00;102102.66;5081368;28;20097;-59
2022/12/03 06:14:51;;;;;;;36.43;15.10;;;;;;;7.16;100.00;102102.94;5082839;28;20270;-60
2022/12/03 06:17:17;;;;;;;42.30;16.70;;;;;;;7.12;100.00;102106.88;5079150;28;20088;-59
2022/12/03 06:19:43;;;;;;;34.97;14.77;;;;;;;7.07;100.00;102097.63;5082820;28;20021;-57
2022/12/03 06:22:10;;;;;;;40.67;16.40;;;;;;;7.20;100.00;102098.19;5080660;28;20040;-60
2022/12/03 06:24:36;;;;;;;39.78;15.60;;;;;;;7.21;100.00;102102.53;5079629;28;20127;-62
2022/12/03 06:27:02;;;;;;;43.50;16.23;;;;;;;7.32;100.00;102096.22;5079955;28;20084;-60
2022/12/03 06:29:27;;;;;;;43.70;17.83;;;;;;;7.33;100.00;102092.56;5080859;28;20540;-60
2022/12/03 06:31:53;;;;;;;39.20;17.67;;;;;;;7.16;100.00;102096.81;5079902;28;20036;-59
2022/12/03 06:34:20;;;;;;;45.23;17.90;;;;;;;7.29;100.00;102092.00;5081093;28;20029;-59
2022/12/03 06:36:45;;;;;;;41.67;15.52;;;;;;;6.99;100.00;102093.00;5079305;28;20265;-60
2022/12/03 06:39:12;;;;;;;40.13;17.00;;;;;;;7.00;100.00;102084.03;5080685;28;20033;-57
2022/12/03 06:41:37;;;;;;;44.00;17.52;;;;;;;7.15;100.00;102087.09;5079105;28;20040;-58
2022/12/03 06:44:03;;;;;;;43.80;16.83;;;;;;;7.27;100.00;102079.84;5081359;28;20097;-60
2022/12/03 06:46:29;;;;;;;45.92;16.83;;;;;;;7.21;100.00;102080.38;5078677;28;20026;-60
2022/12/03 06:48:56;;;;;;;41.83;17.50;;;;;;;7.06;100.00;102080.84;5079430;28;20051;-60
2022/12/03 06:51:21;;;;;;;57.58;22.40;;;;;;;7.25;100.00;102089.75;5076501;28;20084;-60
2022/12/03 06:53:47;;;;;;;40.27;15.87;;;;;;;7.07;100.00;102079.00;5079164;28;20052;-59
2022/12/03 06:56:12;;;;;;;42.30;18.27;;;;;;;6.94;100.00;102082.81;5078819;28;20265;-61
2022/12/03 06:58:37;;;;;;;41.33;17.80;;;;;;;7.11;100.00;102083.06;5078895;28;20199;-60
2022/12/03 07:01:05;;;;;;;46.45;17.85;;;;;;;7.05;100.00;102078.31;5078751;28;20067;-61
2022/12/03 07:03:30;;;;;;;;;;;;;;;7.01;100.00;102078.59;5076602;28;20029;-60
2022/12/03 07:05:55;;;;;;;44.07;17.47;;;;;;;7.29;100.00;102076.03;5080641;28;19927;-60
2022/12/03 07:08:21;;;;;;;45.80;19.10;;;;;;;7.04;100.00;102080.16;5079469;28;20028;-60
2022/12/03 07:10:46;;;;;;;42.37;18.47;;;;;;;7.11;100.00;102080.41;5078057;28;20100;-60
2022/12/03 07:13:12;;;;;;;45.60;17.93;;;;;;;7.19;100.00;102083.22;5080789;28;20020;-60
2022/12/03 07:15:37;;;;;;;47.43;18.67;;;;;;;7.28;100.00;102079.69;5079034;28;20262;-61
2022/12/03 07:18:03;;;;;;;46.00;19.37;;;;;;;7.18;100.00;102077.03;5081505;28;20096;-60
2022/12/03 07:20:28;;;;;;;44.00;17.20;;;;;;;7.16;100.00;102086.16;5084830;28;20051;-60
2022/12/03 07:22:55;;;;;;;42.33;16.65;;;;;;;7.17;100.00;102087.84;5085577;28;20312;-61
2022/12/03 07:25:21;;;;;;;43.70;17.47;;;;;;;7.07;100.00;102079.00;5080350;28;20037;-59
2022/12/03 07:27:46;;;;;;;40.43;16.13;;;;;;;7.13;100.00;102092.59;5083265;28;20040;-60
2022/12/03 07:30:13;;;;;;;39.50;15.30;;;;;;;6.98;100.00;102083.34;5082772;28;20309;-60
2022/12/03 07:32:40;;;;;;;37.38;14.07;;;;;;;6.99;100.00;102085.88;5083477;28;20059;-60
2022/12/03 07:35:06;;;;;;;37.25;14.77;;;;;;;7.01;100.00;102088.38;5081909;28;20052;-59
2022/12/03 07:37:33;;;;;;;42.38;14.70;;;;;;;7.13;100.00;102087.25;5083674;28;20059;-61
2022/12/03 07:39:59;;;;;;;35.72;14.38;;;;;;;7.17;100.00;102098.47;5080567;28;20047;-61
2022/12/03 07:42:25;;;;;;;40.92;15.93;;;;;;;7.02;100.00;102096.25;5084985;28;20051;-60
2022/12/03 07:44:51;;;;;;;42.20;16.25;;;;;;;6.86;100.00;102107.44;5081917;28;20032;-59
2022/12/03 07:47:17;;;;;;;35.10;14.47;;;;;;;7.05;100.00;102103.09;5083346;28;20041;-59
2022/12/03 07:49:42;;;;;;;44.87;16.33;;;;;;;7.18;100.00;102100.97;5083654;28;20028;-59
2022/12/03 07:52:09;;;;;;;35.77;13.43;;;;;;;7.26;100.00;102102.94;5081607;28;20045;-60
2022/12/03 07:54:34;;;;;;;33.17;13.90;;;;;;;7.23;100.00;102103.22;5082162;28;20276;-59
2022/12/03 07:57:00;;;;;;;35.28;14.57;;;;;;;7.13;100.00;102099.72;5084957;28;20104;-58
2022/12/03 07:59:25;;;;;;;37.40;14.47;;;;;;;7.10;100.00;102100.84;5084405;28;20041;-60
2022/12/03 08:01:51;;;;;;;41.93;15.43;;;;;;;7.07;100.00;102097.63;5084553;28;20051;-59
2022/12/03 08:04:17;;;;;;;39.10;15.13;;;;;;;7.12;100.00;102095.38;5083164;28;20393;-59
2022/12/03 08:06:47;;;;;;;39.60;14.25;;;;;;;7.21;100.00;102099.88;5083056;28;20032;-62
2022/12/03 08:09:13;;;;;;;37.95;14.90;;;;;;;7.34;100.00;102101.38;5082620;28;20048;-61
2022/12/03 08:11:40;;;;;;;40.05;15.02;;;;;;;7.40;100.00;102088.34;5083751;28;20032;-60
2022/12/03 08:14:15;;;;;;;41.92;15.00;;;;;;;7.20;100.00;102100.84;5086699;28;20036;-60
2022/12/03 08:16:42;;;;;;;40.17;15.95;;;;;;;7.50;100.00;102093.63;5081783;28;20033;-60
2022/12/03 08:19:10;;;;;;;41.25;15.68;;;;;;;7.58;100.00;102084.94;5082881;28;20036;-61
2022/12/03 08:21:36;;;;;;;39.67;15.30;;;;;;;7.58;100.00;102088.41;5084239;28;20045;-59
2022/12/03 08:24:14;;;;;;;49.88;17.83;;;;;;;7.37;100.00;102085.13;5068308;28;20028;-60
2022/12/03 08:26:40;;;;;;;63.28;19.13;;;;;;;7.03;100.00;102089.09;5074472;28;20052;-58
2022/12/03 08:29:11;;;;;;;49.70;17.25;;;;;;;7.02;100.00;102085.59;5081750;28;20151;-60
2022/12/03 08:31:38;;;;;;;54.85;20.15;;;;;;;7.12;100.00;102084.72;5080701;28;20045;-59
2022/12/03 08:34:18;;;;;;;49.08;16.75;;;;;;;7.26;100.00;102091.44;5078613;28;20033;-61
2022/12/03 08:36:46;;;;;;;50.08;18.88;;;;;;;7.18;100.00;102095.66;5080941;28;20101;-62
2022/12/03 08:39:28;;;;;;;51.60;17.63;;;;;;;7.15;100.00;102087.97;5080611;28;20037;-62
2022/12/03 08:44:56;;;;;;;51.25;19.52;;;;;;;7.06;100.00;102087.97;5078869;28;20037;-59
2022/12/03 08:47:22;;;;;;;56.65;19.20;;;;;;;6.91;100.00;102079.59;5078895;28;21647;-60
2022/12/03 08:49:52;;;;;;;;;;;;;;;6.81;100.00;102076.91;5079063;28;20041;-60
2022/12/03 08:52:19;;;;;;;62.90;21.25;;;;;;;6.97;100.00;102081.66;5078511;28;19952;-60
2022/12/03 08:54:54;;;;;;;64.30;19.80;;;;;;;6.97;100.00;102077.22;5080450;28;20028;-61
2022/12/03 08:57:29;;;;;;;49.47;18.50;;;;;;;7.01;100.00;102077.75;5074283;28;20044;-60
2022/12/03 09:00:12;;;;;;;58.50;21.67;;;;;;;7.12;100.00;102080.28;5073939;28;20040;-61
2022/12/03 09:02:44;;;;;;;65.15;24.25;;;;;;;7.06;100.00;102082.66;5075764;28;20029;-60
2022/12/03 09:05:24;;;;;;;58.75;20.50;;;;;;;6.97;100.00;102077.22;5077802;28;20043;-60
2022/12/03 09:07:50;;;;;;;55.40;20.10;;;;;;;7.23;100.00;102084.59;5076933;28;20042;-58
2022/12/03 09:10:16;;;;;;;58.35;20.95;;;;;;;7.41;100.00;102078.53;5078284;28;20039;-60
2022/12/03 09:12:41;;;;;;;57.87;19.47;;;;;;;7.44;100.00;102072.94;5080787;28;20060;-59
2022/12/03 09:15:07;;;;;;;57.50;22.27;;;;;;;7.34;100.00;102072.94;5079868;28;20036;-57
2022/12/03 09:17:32;;;;;;;55.45;20.25;;;;;;;7.54;100.00;102073.72;5078976;28;20055;-60
2022/12/03 09:19:58;;;;;;;51.85;19.60;;;;;;;7.44;100.00;102067.59;5082983;28;20051;-57
2022/12/03 09:22:23;;;;;;;52.07;21.67;;;;;;;7.32;100.00;102073.09;5082836;28;20035;-59
2022/12/03 09:24:48;;;;;;;62.17;22.47;;;;;;;7.26;100.00;102065.69;5081627;28;20037;-60
2022/12/03 09:27:15;;;;;;;62.22;19.08;;;;;;;7.02;100.00;102064.31;5079582;28;20044;-60
2022/12/03 09:29:41;;;;;;;73.78;20.55;;;;;;;7.15;100.00;102069.34;5079724;28;20053;-58
2022/12/03 09:32:06;;;;;;;66.67;22.03;;;;;;;7.27;100.00;102067.34;5080043;28;20033;-57
2022/12/03 09:34:33;;;;;;;65.90;22.97;;;;;;;7.23;100.00;102084.59;5080363;28;20060;-60
2022/12/03 09:36:59;;;;;;;71.75;22.42;;;;;;;7.16;100.00;102064.88;5079057;28;20033;-60
2022/12/03 09:39:25;;;;;;;68.15;22.25;;;;;;;7.16;100.00;102072.84;5076036;28;20037;-60
2022/12/03 09:41:50;;;;;;;67.87;23.47;;;;;;;7.03;100.00;102068.66;5079637;28;20032;-58
2022/12/03 09:44:16;;;;;;;51.05;19.05;;;;;;;6.81;100.00;102067.13;5078980;28;20066;-58
2022/12/03 09:46:42;;;;;;;60.03;19.52;;;;;;;6.83;100.00;102066.97;5079471;28;20028;-60
2022/12/03 09:49:11;;;;;;;54.38;17.85;;;;;;;6.79;100.00;102062.94;5080631;28;20028;-58
2022/12/03 09:51:37;;;;;;;53.47;18.60;;;;;;;6.84;100.00;102063.34;5078799;28;20032;-59
2022/12/03 09:54:05;;;;;;;46.93;16.57;;;;;;;7.32;100.00;102058.94;5078087;28;20077;-61
2022/12/03 09:56:36;;;;;;;45.47;16.83;;;;;;;7.08;100.00;102070.91;5080752;28;20036;-60
2022/12/03 09:59:05;;;;;;;47.80;16.67;;;;;;;6.95;100.00;102068.53;5078396;28;20047;-60
2022/12/03 10:01:31;;;;;;;42.28;16.15;;;;;;;6.78;100.00;102063.91;5079225;28;20028;-58
2022/12/03 10:03:57;;;;;;;57.73;17.37;;;;;;;6.72;100.00;102060.84;5078353;28;20159;-59
2022/12/03 10:06:23;;;;;;;47.17;15.57;;;;;;;6.96;100.00;102058.72;5079366;28;20051;-60
2022/12/03 10:08:53;;;;;;;48.00;15.73;;;;;;;6.56;100.00;102066.69;5059838;28;20037;-60
2022/12/03 10:11:21;;;;;;;48.47;16.85;;;;;;;6.55;100.00;102066.84;5081095;28;20046;-56
2022/12/03 10:13:47;;;;;;;52.78;17.17;;;;;;;6.79;100.00;102054.94;5077432;28;20044;-59
2022/12/03 10:16:16;;;;;;;47.25;16.77;;;;;;;6.60;100.00;102059.28;5080249;28;20029;-59
2022/12/03 10:18:47;;;;;;;44.47;16.65;;;;;;;6.72;100.00;102057.31;5082936;28;20036;-59
2022/12/03 10:21:23;;;;;;;36.97;13.30;;;;;;;6.86;100.00;102056.91;5074461;28;20033;-59
2022/12/03 10:23:49;;;;;;;47.17;15.05;;;;;;;6.82;100.00;102052.00;5076992;28;20043;-59
2022/12/03 10:26:17;;;;;;;46.92;15.32;;;;;;;6.83;100.00;102051.03;5076791;28;20029;-61
2022/12/03 10:28:45;;;;;;;47.28;16.40;;;;;;;6.73;100.00;102051.88;5081258;28;20048;-62
2022/12/03 10:31:12;;;;;;;50.70;15.23;;;;;;;7.11;100.00;102046.66;5078261;28;20044;-61
2022/12/03 10:33:56;;;;;;;44.53;15.55;;;;;;;6.86;100.00;102048.94;5077709;28;20035;-60
2022/12/03 10:36:24;;;;;;;50.22;17.80;;;;;;;7.09;100.00;102037.13;5077115;28;20025;-59
2022/12/03 10:39:11;;;;;;;46.08;16.85;;;;;;;7.07;100.00;102039.09;5081550;28;20049;-62
2022/12/03 10:41:38;;;;;;;48.75;15.70;;;;;;;7.25;100.00;102034.72;5074996;28;20067;-63
2022/12/03 10:44:21;;;;;;;45.88;15.57;;;;;;;7.14;100.00;102033.06;5079916;28;20039;-61
2022/12/03 10:47:10;;;;;;;46.83;15.90;;;;;;;7.25;100.00;102023.22;5074048;28;20032;-60
2022/12/03 10:49:36;;;;;;;49.33;16.05;;;;;;;7.34;100.00;102018.88;5080600;28;20037;-60
2022/12/03 10:52:03;;;;;;;46.60;16.25;;;;;;;7.46;100.00;102023.06;5079067;28;20083;-58
2022/12/03 10:54:30;;;;;;;50.63;17.17;;;;;;;7.27;100.00;102018.63;5083899;28;20043;-58
2022/12/03 10:56:56;;;;;;;47.03;16.52;;;;;;;7.41;100.00;102017.34;5083382;28;20095;-60
2022/12/03 10:59:27;;;;;;;57.25;16.80;;;;;;;7.55;100.00;102008.84;5081387;28;20104;-60
2022/12/03 11:01:52;;;;;;;49.50;16.83;;;;;;;7.62;100.00;102016.28;5084320;28;20055;-60
2022/12/03 11:04:21;;;;;;;45.30;15.30;;;;;;;7.73;100.00;102010.75;5082263;28;20052;-59
2022/12/03 11:06:48;;;;;;;53.67;16.65;;;;;;;7.28;100.00;102009.66;5083817;28;20270;-61
2022/12/03 11:09:19;;;;;;;52.53;16.23;;;;;;;7.21;100.00;101998.75;5082582;28;20028;-61
2022/12/03 11:11:45;;;;;;;44.08;14.98;;;;;;;7.26;100.00;101996.50;5082807;28;20029;-60
2022/12/03 11:14:11;;;;;;;40.80;14.70;;;;;;;7.26;100.00;101999.16;5082575;28;20033;-59
2022/12/03 11:16:39;;;;;;;52.13;15.77;;;;;;;7.69;100.00;101996.88;5082015;28;20088;-60
2022/12/03 11:19:41;;;;;;;46.97;15.65;;;;;;;7.84;100.00;101983.94;5081139;28;20037;-59
2022/12/03 11:22:09;;;;;;;47.55;14.52;;;;;;;7.72;100.00;101980.59;5080985;28;20037;-58
2022/12/03 11:24:37;;;;;;;44.28;17.05;;;;;;;7.67;100.00;101977.56;5082904;28;20045;-57
2022/12/03 11:27:02;;;;;;;49.03;16.25;;;;;;;7.54;100.00;101980.56;5079890;28;20101;-60
2022/12/03 11:29:51;;;;;;;48.43;15.73;;;;;;;7.77;100.00;101980.16;5079244;28;20036;-61
2022/12/03 11:32:42;;;;;;;41.63;15.55;;;;;;;7.36;100.00;101979.66;5079460;28;20020;-61